Ordway, Colorado
Current Conditions -  °F | °C
As of 1:53 AM on Sunday 26 Oct 2014 (Local Time) from KLHX Reporting Station
Clear Clear  
Wind Chill: 50°   Ceiling: Unl
Heat Index: 50°   Visibility: 10mi
Dew Point: 34°   Wind: 12mph
Humidity: 54%   Direction: 280°W
Pressure: 29.91"   Gusts: NA
Location:  38.22°N, 103.76°W
Report Text: KLHX 260753Z AUTO 28010KT 10SM CLR 10/01 A2991 RMK AO2 SLP076 T01000011
Loading
Personal Weather Stations






























Interactive Weather Map
Tropical Storm Tracking
New forecast layout! Learn more

10-Day Weather Forecast

Advertisements
Track Severe Weather on mobile